Terminal Aerodrome Forecast
Issued by NWS Charleston, WV

Current Version | Previous Version | Graphics & Text | Print | Product List | Glossary On
Versions: 1 2 3 4 5 6 7 8 9 10 11 12 13 14 15 16 17 18 19 20 21 22 23 24 25 26
000
FTUS41 KRLX 270500 RRA
TAFBKW
TAF
KBKW 270543Z 2706/2806 21006KT P6SM VCTS SCT040CB BKN050
      TEMPO 2706/2708 3SM TSRA BR BKN040CB
     FM270800 22006KT P6SM VCTS SCT040CB BKN060
      TEMPO 2708/2712 2SM TSRA BR BKN025CB
     FM271200 23008KT P6SM VCTS SCT040CB BKN100
     FM272000 24010G20KT 5SM TSRA BKN040CB
     FM280000 25010G20KT P6SM BKN050
     FM280400 28008KT P6SM BKN035=

USA.gov is the U.S. government's official web portal to all federal, state and local government web resources and services.